Saint Thomas, North Dakota
Current Conditions -  °F | °C
As of 4:15 PM on Saturday 25 Oct 2014 (Local Time) from K2C8 Reporting Station
Clear Clear  
Wind Chill: 61°   Ceiling: Unl
Heat Index: 61°   Visibility: 10mi
Dew Point: 25°   Wind: 13mph
Humidity: 25%   Direction: 300°WNW
Pressure: 30.02"   Gusts: 21mph
Location:  48.62°N, 97.45°W
Report Text: K2C8 252115Z AUTO 30011G18KT 10SM CLR 16/M04 A3002 RMK AO2
Loading
Personal Weather Stations






























Interactive Weather Map
Tropical Storm Tracking
New forecast layout! Learn more

10-Day Weather Forecast

Advertisements
Track Severe Weather on mobile